createdAt,value
2022-12-23T00:01:12.669Z,8.10
2022-12-23T00:03:39.467Z,8.10
2022-12-23T00:06:11.695Z,8.10
2022-12-23T00:08:38.697Z,8.10
2022-12-23T00:11:10.078Z,8.10
2022-12-23T00:13:36.655Z,8.10
2022-12-23T00:16:10.882Z,8.10
2022-12-23T00:18:38.519Z,8.10
2022-12-23T00:21:09.179Z,8.10
2022-12-23T00:23:39.110Z,8.10
2022-12-23T00:26:06.474Z,8.10
2022-12-23T00:28:33.404Z,8.10
2022-12-23T00:31:05.848Z,8.10
2022-12-23T00:33:35.817Z,8.10
2022-12-23T00:36:03.426Z,8.10
2022-12-23T00:38:30.032Z,8.10
2022-12-23T00:40:56.597Z,8.10
2022-12-23T00:43:23.157Z,8.10
2022-12-23T00:45:49.926Z,8.10
2022-12-23T00:48:16.831Z,8.10
2022-12-23T00:50:43.501Z,8.10
2022-12-23T00:53:10.075Z,8.10
2022-12-23T00:55:36.848Z,8.20
2022-12-23T00:58:03.437Z,8.20
2022-12-23T01:00:30.427Z,8.20
2022-12-23T01:02:57.075Z,8.20
2022-12-23T01:05:24.092Z,8.20
2022-12-23T01:07:50.669Z,8.30
2022-12-23T01:10:17.310Z,8.30
2022-12-23T01:12:43.881Z,8.30
2022-12-23T01:15:10.733Z,8.40
2022-12-23T01:17:37.315Z,8.50
2022-12-23T01:20:04.281Z,8.50
2022-12-23T01:22:30.857Z,8.50
2022-12-23T01:24:57.436Z,8.60
2022-12-23T01:27:24.015Z,8.60
2022-12-23T01:29:50.600Z,8.60
2022-12-23T01:32:17.237Z,8.60
2022-12-23T01:34:43.882Z,8.60
2022-12-23T01:37:10.444Z,8.50
2022-12-23T01:39:37.020Z,8.50
2022-12-23T01:42:03.720Z,8.50
2022-12-23T01:44:49.277Z,8.40
2022-12-23T01:47:47.316Z,8.50
2022-12-23T01:50:22.756Z,8.40
2022-12-23T01:52:54.770Z,8.50
2022-12-23T01:55:26.271Z,8.60
2022-12-23T01:57:56.525Z,8.60
2022-12-23T02:00:23.251Z,8.60
2022-12-23T02:02:51.956Z,8.70
2022-12-23T02:05:19.006Z,8.70
2022-12-23T02:07:46.443Z,8.70
2022-12-23T02:10:13.039Z,8.80
2022-12-23T02:13:07.257Z,8.80
2022-12-23T02:15:46.904Z,8.80
2022-12-23T02:18:50.983Z,8.80
2022-12-23T02:21:23.026Z,8.80
2022-12-23T02:24:10.279Z,8.80
2022-12-23T02:26:57.937Z,8.90
2022-12-23T02:29:55.556Z,8.90
2022-12-23T02:32:36.024Z,8.90
2022-12-23T02:35:18.194Z,8.90
2022-12-23T02:38:11.869Z,8.90
2022-12-23T02:40:52.108Z,8.90
2022-12-23T02:43:38.943Z,8.90
2022-12-23T02:46:20.459Z,8.90
2022-12-23T02:49:08.220Z,9.00
2022-12-23T02:51:40.400Z,8.90
2022-12-23T02:54:11.976Z,8.90
2022-12-23T02:56:42.029Z,8.90
2022-12-23T02:59:17.402Z,9.00
2022-12-23T03:01:45.729Z,9.00
2022-12-23T03:04:12.377Z,9.00
2022-12-23T03:06:46.308Z,9.00
2022-12-23T03:09:33.660Z,9.00
2022-12-23T03:12:06.225Z,9.10
2022-12-23T03:14:49.001Z,9.00
2022-12-23T03:17:51.603Z,9.10
2022-12-23T03:20:39.549Z,9.10
2022-12-23T03:24:00.973Z,9.10
2022-12-23T03:26:39.106Z,9.10
2022-12-23T03:29:39.571Z,9.20
2022-12-23T03:32:08.091Z,9.20
2022-12-23T03:34:39.495Z,9.20
2022-12-23T03:37:09.699Z,9.20
2022-12-23T03:39:49.497Z,9.30
2022-12-23T03:42:27.101Z,9.30
2022-12-23T03:45:36.562Z,9.30
2022-12-23T03:47:50.531Z,9.30
2022-12-23T03:50:20.081Z,9.30
2022-12-23T03:53:15.714Z,9.30
2022-12-23T03:55:48.159Z,9.30
2022-12-23T03:58:29.264Z,9.40
2022-12-23T04:01:12.502Z,9.30
2022-12-23T04:04:01.619Z,9.30
2022-12-23T04:06:36.134Z,9.30
2022-12-23T04:09:03.262Z,9.20
2022-12-23T04:11:30.113Z,9.30
2022-12-23T04:13:56.679Z,9.30
2022-12-23T04:16:23.451Z,9.30
2022-12-23T04:18:50.084Z,9.20
2022-12-23T04:21:16.689Z,9.30
2022-12-23T04:23:43.268Z,9.30
2022-12-23T04:26:09.865Z,9.30
2022-12-23T04:28:36.444Z,9.30
2022-12-23T04:31:03.317Z,9.40
2022-12-23T04:33:29.957Z,9.30
2022-12-23T04:35:58.703Z,9.30
2022-12-23T04:38:25.279Z,9.30
2022-12-23T04:40:51.880Z,9.30
2022-12-23T04:43:18.472Z,9.40
2022-12-23T04:45:49.377Z,9.40
2022-12-23T04:48:15.945Z,9.30
2022-12-23T04:50:42.495Z,9.40
2022-12-23T04:53:09.080Z,9.50
2022-12-23T04:55:35.652Z,9.50
2022-12-23T04:58:02.239Z,9.50
2022-12-23T05:00:31.562Z,9.60
2022-12-23T05:03:02.210Z,9.60
2022-12-23T05:05:28.895Z,9.60
2022-12-23T05:08:02.886Z,9.50
2022-12-23T05:10:29.497Z,9.50
2022-12-23T05:12:56.124Z,9.60
2022-12-23T05:15:22.723Z,9.60
2022-12-23T05:17:49.301Z,9.60
2022-12-23T05:20:15.968Z,9.60
2022-12-23T05:22:42.554Z,9.60
2022-12-23T05:25:09.455Z,9.60
2022-12-23T05:27:36.543Z,9.60
2022-12-23T05:30:03.658Z,9.60
2022-12-23T05:32:30.241Z,9.60
2022-12-23T05:34:56.808Z,9.60
2022-12-23T05:37:23.422Z,9.60
2022-12-23T05:39:50.040Z,9.60
2022-12-23T05:42:16.604Z,9.60
2022-12-23T05:44:43.155Z,9.70
2022-12-23T05:47:09.758Z,9.70
2022-12-23T05:49:36.380Z,9.70
2022-12-23T05:52:02.960Z,9.70
2022-12-23T05:54:29.529Z,9.70
2022-12-23T05:56:56.084Z,9.70
2022-12-23T05:59:25.363Z,9.70
2022-12-23T06:01:55.743Z,9.70
2022-12-23T06:04:22.480Z,9.70
2022-12-23T06:06:49.164Z,9.70
2022-12-23T06:09:15.916Z,9.70
2022-12-23T06:11:42.501Z,9.60
2022-12-23T06:14:10.061Z,9.60
2022-12-23T06:16:36.676Z,9.60
2022-12-23T06:19:03.406Z,9.50
2022-12-23T06:21:29.987Z,9.50
2022-12-23T06:23:56.542Z,9.50
2022-12-23T06:26:23.130Z,9.50
2022-12-23T06:28:49.721Z,9.50
2022-12-23T06:31:16.740Z,9.50
2022-12-23T06:33:43.440Z,9.50
2022-12-23T06:36:10.407Z,9.40
2022-12-23T06:38:36.989Z,9.50
2022-12-23T06:41:03.654Z,9.40
2022-12-23T06:43:30.227Z,9.40
2022-12-23T06:45:56.844Z,9.40
2022-12-23T06:48:23.486Z,9.40
2022-12-23T06:50:50.045Z,9.40
2022-12-23T06:53:16.776Z,9.50
2022-12-23T06:55:43.342Z,9.40
2022-12-23T06:58:09.914Z,9.40
2022-12-23T07:00:36.554Z,9.40
2022-12-23T07:03:03.221Z,9.40
2022-12-23T07:05:36.734Z,9.40
2022-12-23T07:08:03.844Z,9.40
2022-12-23T07:10:30.543Z,9.50
2022-12-23T07:12:57.227Z,9.50
2022-12-23T07:15:23.797Z,9.50
2022-12-23T07:17:50.385Z,9.60
2022-12-23T07:20:17.150Z,9.60
2022-12-23T07:22:43.736Z,9.60
2022-12-23T07:25:10.354Z,9.60
2022-12-23T07:27:36.952Z,9.60
2022-12-23T07:30:03.997Z,9.70
2022-12-23T07:32:30.574Z,9.70
2022-12-23T07:34:57.172Z,9.80
2022-12-23T07:37:23.736Z,9.80
2022-12-23T07:39:50.314Z,9.80
2022-12-23T07:42:43.558Z,9.80
2022-12-23T07:45:04.176Z,9.70
2022-12-23T07:47:30.898Z,9.80
2022-12-23T07:49:57.472Z,9.80
2022-12-23T07:52:24.087Z,9.80
2022-12-23T07:54:50.787Z,9.80
2022-12-23T07:57:17.369Z,9.90
2022-12-23T07:59:43.935Z,9.80
2022-12-23T08:02:11.507Z,9.80
2022-12-23T08:04:44.132Z,9.90
2022-12-23T08:07:12.545Z,9.90
2022-12-23T08:09:39.091Z,9.90
2022-12-23T08:12:05.956Z,9.90
2022-12-23T08:14:32.541Z,9.90
2022-12-23T08:16:59.216Z,10.00
2022-12-23T08:19:25.872Z,10.00
2022-12-23T08:21:52.452Z,10.00
2022-12-23T08:24:19.037Z,10.10
2022-12-23T08:26:45.603Z,10.00
2022-12-23T08:29:12.174Z,10.10
2022-12-23T08:31:38.839Z,10.10
2022-12-23T08:34:05.449Z,10.10
2022-12-23T08:36:34.451Z,10.10
2022-12-23T08:39:05.115Z,10.10
2022-12-23T08:41:35.372Z,10.10
2022-12-23T08:44:01.998Z,10.10
2022-12-23T08:46:29.193Z,10.10
2022-12-23T08:48:56.196Z,10.10
2022-12-23T08:51:24.547Z,10.20
2022-12-23T08:53:57.963Z,10.20
2022-12-23T08:56:30.012Z,10.20
2022-12-23T08:58:57.473Z,10.20
2022-12-23T09:01:26.742Z,10.20
2022-12-23T09:03:53.787Z,10.20
2022-12-23T09:06:28.863Z,10.30
2022-12-23T09:08:57.111Z,10.30
2022-12-23T09:11:26.673Z,10.40
2022-12-23T09:13:54.070Z,10.40
2022-12-23T09:16:21.079Z,10.40
2022-12-23T09:18:47.917Z,10.40
2022-12-23T09:21:18.179Z,10.40
2022-12-23T09:23:45.091Z,10.50
2022-12-23T09:26:18.547Z,10.50
2022-12-23T09:28:45.121Z,10.50
2022-12-23T09:31:12.727Z,10.50
2022-12-23T09:33:39.746Z,10.50
2022-12-23T09:36:07.062Z,10.50
2022-12-23T09:38:33.861Z,10.60
2022-12-23T09:41:42.049Z,10.60
2022-12-23T09:44:33.767Z,10.60
2022-12-23T09:47:04.354Z,10.70
2022-12-23T09:49:32.200Z,10.60
2022-12-23T09:52:03.315Z,10.60
2022-12-23T09:54:46.085Z,10.60
2022-12-23T09:57:27.009Z,10.60
2022-12-23T10:00:10.692Z,10.60
2022-12-23T10:02:40.234Z,10.60
2022-12-23T10:05:30.163Z,10.60
2022-12-23T10:08:09.853Z,10.60
2022-12-23T10:10:44.539Z,10.60
2022-12-23T10:13:39.239Z,10.70
2022-12-23T10:16:16.454Z,10.70
2022-12-23T10:18:50.414Z,10.70
2022-12-23T10:21:31.289Z,10.70
2022-12-23T10:24:01.971Z,10.70
2022-12-23T10:26:41.772Z,10.70
2022-12-23T10:29:18.693Z,10.70
2022-12-23T10:32:05.266Z,10.70
2022-12-23T10:34:45.719Z,10.70
2022-12-23T10:37:23.796Z,10.80
2022-12-23T10:40:11.715Z,10.70
2022-12-23T10:42:57.473Z,10.70
2022-12-23T10:45:48.368Z,10.70
2022-12-23T10:48:40.094Z,10.70
2022-12-23T10:51:18.934Z,10.80
2022-12-23T10:53:59.787Z,10.80
2022-12-23T10:56:28.973Z,10.80
2022-12-23T10:58:58.396Z,10.80
2022-12-23T11:01:27.326Z,10.70
2022-12-23T11:04:27.357Z,10.70
2022-12-23T11:07:18.027Z,10.70
2022-12-23T11:09:47.902Z,10.70
2022-12-23T11:12:14.866Z,10.70
2022-12-23T11:14:51.301Z,10.70
2022-12-23T11:17:24.319Z,10.70
2022-12-23T11:20:08.581Z,10.80
2022-12-23T11:22:35.349Z,10.80
2022-12-23T11:25:37.463Z,10.80
2022-12-23T11:28:14.633Z,10.80
2022-12-23T11:30:56.326Z,10.90
2022-12-23T11:33:33.819Z,10.90
2022-12-23T11:36:05.000Z,10.90
2022-12-23T11:38:32.446Z,10.90
2022-12-23T11:40:59.411Z,11.00
2022-12-23T11:43:27.336Z,11.00
2022-12-23T11:46:18.020Z,11.00
2022-12-23T11:48:51.329Z,11.00
2022-12-23T11:51:25.806Z,11.10
2022-12-23T11:54:02.880Z,11.10
2022-12-23T11:56:37.055Z,11.10
2022-12-23T11:59:07.607Z,11.10
2022-12-23T12:01:36.026Z,11.10
2022-12-23T12:04:07.399Z,11.10
2022-12-23T12:06:34.609Z,11.20
2022-12-23T12:09:04.239Z,11.20
2022-12-23T12:11:39.636Z,11.20
2022-12-23T12:14:08.246Z,11.30
2022-12-23T12:16:48.999Z,11.30
2022-12-23T12:19:33.135Z,11.20
2022-12-23T12:22:05.237Z,11.20
2022-12-23T12:24:53.624Z,11.20
2022-12-23T12:27:33.628Z,11.20
2022-12-23T12:30:19.321Z,11.20
2022-12-23T12:33:21.502Z,11.20
2022-12-23T12:35:56.742Z,11.20
2022-12-23T12:38:31.612Z,11.20
2022-12-23T12:41:06.748Z,11.20
2022-12-23T12:43:37.587Z,11.20
2022-12-23T12:46:24.310Z,11.20
2022-12-23T12:49:03.594Z,11.30
2022-12-23T12:51:46.480Z,11.20
2022-12-23T12:54:32.031Z,11.20
2022-12-23T12:56:59.235Z,11.20
2022-12-23T12:59:34.935Z,11.10
2022-12-23T13:02:30.274Z,11.10
2022-12-23T13:05:28.661Z,11.00
2022-12-23T13:08:32.539Z,11.00
2022-12-23T13:11:26.581Z,10.90
2022-12-23T13:14:16.677Z,11.00
2022-12-23T13:17:03.600Z,10.90
2022-12-23T13:19:46.769Z,10.90
2022-12-23T13:22:29.035Z,10.90
2022-12-23T13:25:24.172Z,10.80
2022-12-23T13:27:53.560Z,10.80
2022-12-23T13:30:22.679Z,10.80
2022-12-23T13:32:52.044Z,10.80
2022-12-23T13:35:37.611Z,10.80
2022-12-23T13:38:28.752Z,10.70
2022-12-23T13:41:13.301Z,10.70
2022-12-23T13:43:54.760Z,10.70
2022-12-23T13:46:25.809Z,10.70
2022-12-23T13:49:05.681Z,10.70
2022-12-23T13:52:02.809Z,10.70
2022-12-23T13:55:13.323Z,10.70
2022-12-23T13:58:15.324Z,10.70
2022-12-23T14:00:42.830Z,10.70
2022-12-23T14:03:23.579Z,10.70
2022-12-23T14:05:52.378Z,10.70
2022-12-23T14:08:21.658Z,10.70
2022-12-23T14:10:53.593Z,10.70
2022-12-23T14:13:28.082Z,10.70
2022-12-23T14:16:12.960Z,10.70
2022-12-23T14:18:58.036Z,10.70
2022-12-23T14:21:43.196Z,10.70
2022-12-23T14:24:21.800Z,10.70
2022-12-23T14:27:25.599Z,10.70
2022-12-23T14:30:11.176Z,10.70
2022-12-23T14:32:51.966Z,10.70
2022-12-23T14:35:40.280Z,10.60
2022-12-23T14:38:21.104Z,10.60
2022-12-23T14:40:49.172Z,10.60
2022-12-23T14:43:32.216Z,10.60
2022-12-23T14:46:04.896Z,10.60
2022-12-23T14:48:34.507Z,10.60
2022-12-23T14:51:25.218Z,10.60
2022-12-23T14:53:51.759Z,10.60
2022-12-23T14:56:18.270Z,10.60
2022-12-23T14:59:12.167Z,10.60
2022-12-23T15:01:40.538Z,10.60
2022-12-23T15:04:14.972Z,10.60
2022-12-23T15:06:59.754Z,10.60
2022-12-23T15:09:34.779Z,10.60
2022-12-23T15:12:06.203Z,10.60
2022-12-23T15:14:37.799Z,10.60
2022-12-23T15:17:26.971Z,10.70
2022-12-23T15:20:02.031Z,10.70
2022-12-23T15:22:32.667Z,10.60
2022-12-23T15:24:59.460Z,10.70
2022-12-23T15:27:35.988Z,10.70
2022-12-23T15:30:03.209Z,10.70
2022-12-23T15:32:30.047Z,10.70
2022-12-23T15:35:05.640Z,10.70
2022-12-23T15:37:33.281Z,10.80
2022-12-23T15:40:11.407Z,10.80
2022-12-23T15:42:39.597Z,10.90
2022-12-23T15:45:32.833Z,10.90
2022-12-23T15:47:59.748Z,10.90
2022-12-23T15:50:28.055Z,10.90
2022-12-23T15:52:57.395Z,10.90
2022-12-23T15:55:32.165Z,10.90
2022-12-23T15:58:01.251Z,11.00
2022-12-23T16:00:49.518Z,11.00
2022-12-23T16:03:33.030Z,11.00
2022-12-23T16:06:28.833Z,11.10
2022-12-23T16:09:15.258Z,11.10
2022-12-23T16:11:53.826Z,11.10
2022-12-23T16:14:31.198Z,11.20
2022-12-23T16:17:09.878Z,11.20
2022-12-23T16:20:18.414Z,11.20
2022-12-23T16:22:45.185Z,11.20
2022-12-23T16:25:26.266Z,11.20
2022-12-23T16:27:58.945Z,11.20
2022-12-23T16:30:31.691Z,11.30
2022-12-23T16:33:04.791Z,11.30
2022-12-23T16:35:40.751Z,11.30
2022-12-23T16:38:26.873Z,11.30
2022-12-23T16:40:55.528Z,11.30
2022-12-23T16:43:24.619Z,11.40
2022-12-23T16:45:54.982Z,11.40
2022-12-23T16:48:42.004Z,11.40
2022-12-23T16:51:13.768Z,11.40
2022-12-23T16:53:40.634Z,11.40
2022-12-23T16:56:12.800Z,11.40
2022-12-23T16:58:39.618Z,11.30
2022-12-23T17:01:06.858Z,11.40
2022-12-23T17:03:33.478Z,11.40
2022-12-23T17:06:00.298Z,11.40
2022-12-23T17:08:26.852Z,11.50
2022-12-23T17:10:53.476Z,11.40
2022-12-23T17:13:20.186Z,11.40
2022-12-23T17:15:46.825Z,11.40
2022-12-23T17:18:16.127Z,11.40
2022-12-23T17:20:45.116Z,11.40
2022-12-23T17:23:31.946Z,11.40
2022-12-23T17:25:59.030Z,11.40
2022-12-23T17:28:31.953Z,11.40
2022-12-23T17:30:59.223Z,11.50
2022-12-23T17:33:29.632Z,11.50
2022-12-23T17:35:56.240Z,11.40
2022-12-23T17:38:23.176Z,11.40
2022-12-23T17:40:50.508Z,11.40
2022-12-23T17:43:18.473Z,11.40
2022-12-23T17:45:45.820Z,11.40
2022-12-23T17:48:20.202Z,11.40
2022-12-23T17:50:49.064Z,11.40
2022-12-23T17:53:17.370Z,11.40
2022-12-23T17:55:44.527Z,11.40
2022-12-23T17:58:11.535Z,11.40
2022-12-23T18:00:38.730Z,11.30
2022-12-23T18:03:05.882Z,11.30
2022-12-23T18:05:34.628Z,11.40
2022-12-23T18:08:02.469Z,11.40
2022-12-23T18:10:36.317Z,11.40
2022-12-23T18:13:06.918Z,11.40
2022-12-23T18:15:40.231Z,11.40
2022-12-23T18:18:22.003Z,11.40
2022-12-23T18:20:56.165Z,11.40
2022-12-23T18:23:26.063Z,11.40
2022-12-23T18:25:53.494Z,11.40
2022-12-23T18:28:20.090Z,11.40
2022-12-23T18:30:46.985Z,11.40
2022-12-23T18:33:13.957Z,11.40
2022-12-23T18:35:46.113Z,11.40
2022-12-23T18:38:13.398Z,11.40
2022-12-23T18:40:40.674Z,11.50
2022-12-23T18:43:07.294Z,11.50
2022-12-23T18:45:41.654Z,11.40
2022-12-23T18:48:09.234Z,11.50
2022-12-23T18:50:38.349Z,11.50
2022-12-23T18:53:06.571Z,11.50
2022-12-23T18:55:33.385Z,11.50
2022-12-23T18:58:00.988Z,11.50
2022-12-23T19:00:30.388Z,11.50
2022-12-23T19:02:57.639Z,11.50
2022-12-23T19:05:27.131Z,11.60
2022-12-23T19:07:56.253Z,11.50
2022-12-23T19:10:29.366Z,11.60
2022-12-23T19:12:56.443Z,11.60
2022-12-23T19:15:23.392Z,11.60
2022-12-23T19:17:50.319Z,11.60
2022-12-23T19:20:19.169Z,11.60
2022-12-23T19:22:46.945Z,11.60
2022-12-23T19:25:16.049Z,11.60
2022-12-23T19:27:43.651Z,11.60
2022-12-23T19:30:15.673Z,11.60
2022-12-23T19:32:42.680Z,11.60
2022-12-23T19:35:13.070Z,11.70
2022-12-23T19:37:39.673Z,11.60
2022-12-23T19:40:07.437Z,11.70
2022-12-23T19:42:34.034Z,11.60
2022-12-23T19:45:00.920Z,11.70
2022-12-23T19:47:27.597Z,11.60
2022-12-23T19:49:54.152Z,11.60
2022-12-23T19:52:20.738Z,11.60
2022-12-23T19:54:47.318Z,11.70
2022-12-23T19:57:13.965Z,11.70
2022-12-23T19:59:40.545Z,11.80
2022-12-23T20:02:07.184Z,11.80
2022-12-23T20:04:33.823Z,11.80
2022-12-23T20:07:00.383Z,11.80
2022-12-23T20:09:27.018Z,11.80
2022-12-23T20:11:53.608Z,11.80
2022-12-23T20:14:20.201Z,11.80
2022-12-23T20:16:46.760Z,11.80
2022-12-23T20:19:13.345Z,11.80
2022-12-23T20:21:40.408Z,11.70
2022-12-23T20:24:07.680Z,11.70
2022-12-23T20:26:34.617Z,11.70
2022-12-23T20:29:01.220Z,11.80
2022-12-23T20:31:33.363Z,11.70
2022-12-23T20:34:01.602Z,11.70
2022-12-23T20:36:30.944Z,11.70
2022-12-23T20:38:57.958Z,11.60
2022-12-23T20:41:26.937Z,11.60
2022-12-23T20:44:31.575Z,11.60
2022-12-23T20:46:40.791Z,11.60
2022-12-23T20:49:07.433Z,11.60
2022-12-23T20:51:34.027Z,11.50
2022-12-23T20:54:00.593Z,11.50
2022-12-23T20:56:28.067Z,11.40
2022-12-23T20:58:55.505Z,11.40
2022-12-23T21:01:25.122Z,11.40
2022-12-23T21:03:52.390Z,11.30
2022-12-23T21:06:19.142Z,11.30
2022-12-23T21:08:46.090Z,11.20
2022-12-23T21:11:12.727Z,11.00
2022-12-23T21:13:39.373Z,10.90
2022-12-23T21:16:12.504Z,10.90
2022-12-23T21:18:44.550Z,10.80
2022-12-23T21:21:12.203Z,10.80
2022-12-23T21:23:40.873Z,10.80
2022-12-23T21:26:27.795Z,10.80
2022-12-23T21:28:56.581Z,10.70
2022-12-23T21:31:23.716Z,10.70
2022-12-23T21:33:51.583Z,10.70
2022-12-23T21:36:23.370Z,10.70
2022-12-23T21:38:50.256Z,10.70
2022-12-23T21:41:30.023Z,10.60
2022-12-23T21:43:58.462Z,10.60
2022-12-23T21:46:26.459Z,10.50
2022-12-23T21:48:53.189Z,10.50
2022-12-23T21:51:23.218Z,10.50
2022-12-23T21:53:52.055Z,10.50
2022-12-23T21:56:23.780Z,10.60
2022-12-23T21:58:54.154Z,10.60
2022-12-23T22:01:21.164Z,10.60
2022-12-23T22:03:49.623Z,10.60
2022-12-23T22:06:19.419Z,10.70
2022-12-23T22:08:46.643Z,10.80
2022-12-23T22:11:19.901Z,10.90
2022-12-23T22:13:46.940Z,10.90
2022-12-23T22:16:15.914Z,11.00
2022-12-23T22:18:43.251Z,11.00
2022-12-23T22:21:13.020Z,11.00
2022-12-23T22:23:40.458Z,11.10
2022-12-23T22:26:08.308Z,11.10
2022-12-23T22:28:36.783Z,11.10
2022-12-23T22:31:06.490Z,11.20
2022-12-23T22:33:34.004Z,11.30
2022-12-23T22:36:01.137Z,11.20
2022-12-23T22:38:27.823Z,11.20
2022-12-23T22:40:54.474Z,11.20
2022-12-23T22:43:21.071Z,11.20
2022-12-23T22:45:54.713Z,11.10
2022-12-23T22:48:21.344Z,11.20
2022-12-23T22:50:48.002Z,11.20
2022-12-23T22:53:15.183Z,11.20
2022-12-23T22:55:41.891Z,11.10
2022-12-23T22:58:08.474Z,11.10
2022-12-23T23:00:35.043Z,11.10
2022-12-23T23:03:01.650Z,11.20
2022-12-23T23:05:28.247Z,11.10
2022-12-23T23:07:54.825Z,11.10
2022-12-23T23:10:21.519Z,11.20
2022-12-23T23:12:48.078Z,11.10
2022-12-23T23:15:14.727Z,11.20
2022-12-23T23:17:41.297Z,11.20
2022-12-23T23:20:08.501Z,11.20
2022-12-23T23:22:35.054Z,11.30
2022-12-23T23:25:01.618Z,11.20
2022-12-23T23:27:28.208Z,11.30
2022-12-23T23:29:54.808Z,11.20
2022-12-23T23:32:21.403Z,11.20
2022-12-23T23:34:47.961Z,11.20
2022-12-23T23:37:14.600Z,11.10
2022-12-23T23:39:41.312Z,11.10
2022-12-23T23:42:07.937Z,11.10
2022-12-23T23:44:34.501Z,11.00
2022-12-23T23:47:01.088Z,11.00
2022-12-23T23:49:27.642Z,11.00
2022-12-23T23:51:54.239Z,11.00
2022-12-23T23:54:20.886Z,11.00
2022-12-23T23:56:47.441Z,10.90
2022-12-23T23:59:15.063Z,10.90
